createdAt,value
2023-04-01T00:02:23.744Z,99901.00
2023-04-01T00:04:52.436Z,99891.00
2023-04-01T00:07:21.370Z,99897.00
2023-04-01T00:09:50.958Z,99895.00
2023-04-01T00:12:21.311Z,99885.00
2023-04-01T00:14:50.058Z,99888.00
2023-04-01T00:17:19.485Z,99891.00
2023-04-01T00:19:48.162Z,99901.00
2023-04-01T00:22:16.917Z,99885.00
2023-04-01T00:24:45.744Z,99881.00
2023-04-01T00:27:14.489Z,99885.00
2023-04-01T00:29:46.529Z,99901.00
2023-04-01T00:32:16.444Z,99887.00
2023-04-01T00:34:45.697Z,99874.00
2023-04-01T00:37:14.433Z,99875.00
2023-04-01T00:39:43.638Z,99884.00
2023-04-01T00:42:13.341Z,99876.00
2023-04-01T00:44:43.494Z,99883.00
2023-04-01T00:47:13.938Z,99878.00
2023-04-01T00:49:48.255Z,99880.00
2023-04-01T00:52:23.730Z,99882.00
2023-04-01T00:54:58.848Z,99886.00
2023-04-01T00:57:35.329Z,99882.00
2023-04-01T01:00:07.602Z,99871.00
2023-04-01T01:02:38.833Z,99870.00
2023-04-01T01:05:08.536Z,99873.00
2023-04-01T01:07:46.446Z,99872.00
2023-04-01T01:10:20.914Z,99869.00
2023-04-01T01:13:04.341Z,99879.00
2023-04-01T01:15:40.403Z,99878.00
2023-04-01T01:18:24.612Z,99866.00
2023-04-01T01:21:34.569Z,99861.00
2023-04-01T01:24:44.052Z,99864.00
2023-04-01T01:27:14.987Z,99874.00
2023-04-01T01:30:25.065Z,99869.00
2023-04-01T01:33:52.711Z,99863.00
2023-04-01T01:36:25.934Z,99859.00
2023-04-01T01:38:55.450Z,99876.00
2023-04-01T01:41:27.668Z,99870.00
2023-04-01T01:44:00.053Z,99870.00
2023-04-01T01:46:33.098Z,99872.00
2023-04-01T01:49:05.453Z,99871.00
2023-04-01T01:51:36.721Z,99866.00
2023-04-01T01:54:07.077Z,99880.00
2023-04-01T01:56:37.968Z,99874.00
2023-04-01T01:59:12.248Z,99873.00
2023-04-01T02:01:47.993Z,99875.00
2023-04-01T02:04:20.382Z,99871.00
2023-04-01T02:06:57.836Z,99874.00
2023-04-01T02:09:27.186Z,99872.00
2023-04-01T02:12:03.279Z,99867.00
2023-04-01T02:14:47.052Z,99867.00
2023-04-01T02:17:19.125Z,99876.00
2023-04-01T02:19:55.823Z,99869.00
2023-04-01T02:22:32.296Z,99870.00
2023-04-01T02:25:05.128Z,99868.00
2023-04-01T02:27:34.555Z,99874.00
2023-04-01T02:30:03.654Z,99869.00
2023-04-01T02:32:38.938Z,99869.00
2023-04-01T02:35:11.500Z,99866.00
2023-04-01T02:37:43.464Z,99864.00
2023-04-01T02:40:16.658Z,99872.00
2023-04-01T02:42:45.911Z,99865.00
2023-04-01T02:45:16.663Z,99865.00
2023-04-01T02:47:45.803Z,99868.00
2023-04-01T02:50:14.790Z,99869.00
2023-04-01T02:52:44.744Z,99872.00
2023-04-01T02:55:14.242Z,99871.00
2023-04-01T02:57:42.907Z,99882.00
2023-04-01T03:00:13.744Z,99877.00
2023-04-01T03:02:45.350Z,99878.00
2023-04-01T03:05:14.087Z,99875.00
2023-04-01T03:07:44.217Z,99874.00
2023-04-01T03:10:13.440Z,99872.00
2023-04-01T03:12:43.540Z,99882.00
2023-04-01T03:15:15.704Z,99878.00
2023-04-01T03:17:45.576Z,99877.00
2023-04-01T03:20:16.071Z,99881.00
2023-04-01T03:22:48.015Z,99885.00
2023-04-01T03:25:16.936Z,99891.00
2023-04-01T03:27:45.936Z,99878.00
2023-04-01T03:30:16.234Z,99882.00
2023-04-01T03:32:51.860Z,99888.00
2023-04-01T03:35:21.161Z,99896.00
2023-04-01T03:37:53.196Z,99888.00
2023-04-01T03:40:22.859Z,99893.00
2023-04-01T03:42:52.751Z,99882.00
2023-04-01T03:45:22.562Z,99895.00
2023-04-01T03:47:51.815Z,99890.00
2023-04-01T03:50:21.180Z,99897.00
2023-04-01T03:52:53.767Z,99897.00
2023-04-01T03:55:23.149Z,99901.00
2023-04-01T03:57:52.034Z,99901.00
2023-04-01T04:00:22.147Z,99902.00
2023-04-01T04:02:57.234Z,99898.00
2023-04-01T04:05:32.558Z,99896.00
2023-04-01T04:08:04.049Z,99905.00
2023-04-01T04:10:33.797Z,99912.00
2023-04-01T04:13:03.538Z,99906.00
2023-04-01T04:15:34.601Z,99896.00
2023-04-01T04:18:03.539Z,99907.00
2023-04-01T04:20:32.557Z,99910.00
2023-04-01T04:23:02.879Z,99914.00
2023-04-01T04:25:34.356Z,99916.00
2023-04-01T04:28:03.414Z,99910.00
2023-04-01T04:30:32.126Z,99908.00
2023-04-01T04:33:00.889Z,99909.00
2023-04-01T04:35:29.714Z,99909.00
2023-04-01T04:37:58.616Z,99914.00
2023-04-01T04:40:30.048Z,99915.00
2023-04-01T04:42:58.792Z,99918.00
2023-04-01T04:45:27.474Z,99917.00
2023-04-01T04:47:58.921Z,99923.00
2023-04-01T04:50:28.029Z,99921.00
2023-04-01T04:52:58.837Z,99921.00
2023-04-01T04:55:38.693Z,99924.00
2023-04-01T04:58:24.003Z,99924.00
2023-04-01T05:00:53.272Z,99926.00
2023-04-01T05:03:31.510Z,99929.00
2023-04-01T05:06:02.184Z,99922.00
2023-04-01T05:08:33.805Z,99926.00
2023-04-01T05:11:13.882Z,99927.00
2023-04-01T05:13:45.499Z,99926.00
2023-04-01T05:16:17.448Z,99929.00
2023-04-01T05:18:48.529Z,99924.00
2023-04-01T05:21:36.010Z,99921.00
2023-04-01T05:24:05.708Z,99928.00
2023-04-01T05:26:36.141Z,99921.00
2023-04-01T05:29:06.173Z,99921.00
2023-04-01T05:31:36.112Z,99927.00
2023-04-01T05:34:06.247Z,99926.00
2023-04-01T05:36:36.916Z,99942.00
2023-04-01T05:39:06.298Z,99932.00
2023-04-01T05:41:37.591Z,99937.00
2023-04-01T05:44:08.710Z,99934.00
2023-04-01T05:46:48.643Z,99933.00
2023-04-01T05:49:23.366Z,99933.00
2023-04-01T05:51:54.123Z,99945.00
2023-04-01T05:54:29.357Z,99946.00
2023-04-01T05:57:07.950Z,99940.00
2023-04-01T05:59:39.421Z,99947.00
2023-04-01T06:02:20.652Z,99949.00
2023-04-01T06:04:50.100Z,99939.00
2023-04-01T06:07:21.248Z,99947.00
2023-04-01T06:09:50.438Z,99942.00
2023-04-01T06:12:50.306Z,99944.00
2023-04-01T06:15:45.137Z,99944.00
2023-04-01T06:19:12.814Z,99951.00
2023-04-01T06:22:46.593Z,99952.00
2023-04-01T06:25:47.527Z,99958.00
2023-04-01T06:29:25.904Z,99960.00
2023-04-01T06:33:11.351Z,99970.00
2023-04-01T06:36:05.266Z,99963.00
2023-04-01T06:39:24.527Z,99970.00
2023-04-01T06:42:25.470Z,99967.00
2023-04-01T06:45:19.835Z,99968.00
2023-04-01T06:48:41.273Z,99968.00
2023-04-01T06:52:07.145Z,99971.00
2023-04-01T06:55:03.454Z,99970.00
2023-04-01T06:57:54.508Z,99973.00
2023-04-01T07:00:31.592Z,99971.00
2023-04-01T07:03:15.046Z,99970.00
2023-04-01T07:05:49.295Z,99974.00
2023-04-01T07:08:26.214Z,99968.00
2023-04-01T07:11:06.661Z,99980.00
2023-04-01T07:14:02.427Z,99972.00
2023-04-01T07:16:41.353Z,99981.00
2023-04-01T07:19:23.179Z,99986.00
2023-04-01T07:22:15.866Z,99983.00
2023-04-01T07:25:16.072Z,99999.00
2023-04-01T07:28:07.428Z,100001.00
2023-04-01T07:31:07.316Z,99997.00
2023-04-01T07:33:53.504Z,100003.00
2023-04-01T07:36:46.199Z,99999.00
2023-04-01T07:39:38.339Z,100010.00
2023-04-01T07:42:37.263Z,100007.00
2023-04-01T07:45:22.905Z,100004.00
2023-04-01T07:48:16.674Z,100006.00
2023-04-01T07:50:58.497Z,100005.00
2023-04-01T07:53:39.512Z,100009.00
2023-04-01T07:56:18.090Z,100009.00
2023-04-01T07:59:12.615Z,100015.00
2023-04-01T08:02:24.900Z,100010.00
2023-04-01T08:05:15.395Z,100008.00
2023-04-01T08:08:01.997Z,100015.00
2023-04-01T08:11:00.754Z,100015.00
2023-04-01T08:14:02.323Z,100026.00
2023-04-01T08:17:05.433Z,100030.00
2023-04-01T08:20:05.502Z,100027.00
2023-04-01T08:22:47.484Z,100025.00
2023-04-01T08:25:34.709Z,100017.00
2023-04-01T08:28:16.571Z,100023.00
2023-04-01T08:31:07.567Z,100032.00
2023-04-01T08:33:51.873Z,100023.00
2023-04-01T08:36:39.765Z,100032.00
2023-04-01T08:39:34.081Z,100025.00
2023-04-01T08:43:01.282Z,100030.00
2023-04-01T08:46:13.391Z,100037.00
2023-04-01T08:49:17.627Z,100044.00
2023-04-01T08:52:36.206Z,100037.00
2023-04-01T08:56:05.709Z,100046.00
2023-04-01T08:59:27.832Z,100041.00
2023-04-01T09:02:49.959Z,100052.00
2023-04-01T09:05:46.894Z,100058.00
2023-04-01T09:08:39.666Z,100052.00
2023-04-01T09:12:00.498Z,100054.00
2023-04-01T09:14:57.925Z,100058.00
2023-04-01T09:18:28.905Z,100066.00
2023-04-01T09:21:36.884Z,100084.00
2023-04-01T09:25:04.489Z,100080.00
2023-04-01T09:27:48.549Z,100081.00
2023-04-01T09:31:19.277Z,100077.00
2023-04-01T09:35:14.664Z,100079.00
2023-04-01T09:38:03.949Z,100078.00
2023-04-01T09:41:19.916Z,100088.00
2023-04-01T09:44:36.680Z,100084.00
2023-04-01T09:47:37.112Z,100089.00
2023-04-01T09:50:51.170Z,100087.00
2023-04-01T09:54:16.389Z,100084.00
2023-04-01T09:57:57.050Z,100086.00
2023-04-01T10:01:38.562Z,100091.00
2023-04-01T10:05:24.389Z,100099.00
2023-04-01T10:09:01.167Z,100095.00
2023-04-01T10:12:18.118Z,100101.00
2023-04-01T10:16:02.652Z,100105.00
2023-04-01T10:19:33.063Z,100112.00
2023-04-01T10:22:50.819Z,100112.00
2023-04-01T10:26:01.526Z,100110.00
2023-04-01T10:29:39.522Z,100108.00
2023-04-01T10:33:03.995Z,100112.00
2023-04-01T10:36:43.938Z,100111.00
2023-04-01T10:40:14.652Z,100117.00
2023-04-01T10:43:54.629Z,100119.00
2023-04-01T10:47:18.053Z,100124.00
2023-04-01T10:50:27.911Z,100135.00
2023-04-01T10:54:06.676Z,100127.00
2023-04-01T10:57:02.344Z,100134.00
2023-04-01T11:00:53.608Z,100149.00
2023-04-01T11:05:13.321Z,100144.00
2023-04-01T11:08:52.089Z,100152.00
2023-04-01T11:12:42.601Z,100151.00
2023-04-01T11:16:24.288Z,100155.00
2023-04-01T11:19:41.771Z,100149.00
2023-04-01T11:22:57.943Z,100149.00
2023-04-01T11:26:07.368Z,100162.00
2023-04-01T11:29:33.406Z,100153.00
2023-04-01T11:32:40.796Z,100160.00
2023-04-01T11:36:08.285Z,100154.00
2023-04-01T11:39:25.397Z,100163.00
2023-04-01T11:42:34.906Z,100157.00
2023-04-01T11:45:38.088Z,100157.00
2023-04-01T11:48:36.543Z,100157.00
2023-04-01T11:51:48.545Z,100168.00
2023-04-01T11:54:44.365Z,100170.00
2023-04-01T11:58:09.865Z,100161.00
2023-04-01T12:00:58.916Z,100162.00
2023-04-01T12:04:43.120Z,100177.00
2023-04-01T12:07:28.962Z,100174.00
2023-04-01T12:10:25.330Z,100178.00
2023-04-01T12:13:05.359Z,100179.00
2023-04-01T12:16:01.872Z,100173.00
2023-04-01T12:18:45.159Z,100173.00
2023-04-01T12:21:38.379Z,100176.00
2023-04-01T12:24:34.840Z,100179.00
2023-04-01T12:27:31.358Z,100189.00
2023-04-01T12:30:46.962Z,100184.00
2023-04-01T12:34:02.883Z,100192.00
2023-04-01T12:37:00.070Z,100188.00
2023-04-01T12:40:01.316Z,100190.00
2023-04-01T12:42:52.881Z,100190.00
2023-04-01T12:45:35.559Z,100187.00
2023-04-01T12:48:32.839Z,100206.00
2023-04-01T12:51:35.565Z,100193.00
2023-04-01T12:54:44.826Z,100196.00
2023-04-01T12:57:42.525Z,100201.00
2023-04-01T13:00:45.098Z,100207.00
2023-04-01T13:03:42.250Z,100202.00
2023-04-01T13:10:05.475Z,100209.00
2023-04-01T13:13:37.298Z,100221.00
2023-04-01T13:19:35.178Z,100226.00
2023-04-01T13:22:14.737Z,100229.00
2023-04-01T13:24:57.227Z,100228.00
2023-04-01T13:33:38.117Z,100243.00
2023-04-01T13:36:40.737Z,100235.00
2023-04-01T13:39:49.123Z,100245.00
2023-04-01T13:42:31.690Z,100252.00
2023-04-01T13:45:16.757Z,100256.00
2023-04-01T13:48:38.891Z,100258.00
2023-04-01T13:51:35.999Z,100265.00
2023-04-01T13:55:07.722Z,100269.00
2023-04-01T13:58:09.393Z,100265.00
2023-04-01T14:01:11.435Z,100271.00
2023-04-01T14:04:30.079Z,100279.00
2023-04-01T14:07:21.272Z,100290.00
2023-04-01T14:10:22.774Z,100284.00
2023-04-01T14:13:07.968Z,100285.00
2023-04-01T14:16:02.630Z,100288.00
2023-04-01T14:19:05.569Z,100298.00
2023-04-01T14:21:49.661Z,100295.00
2023-04-01T14:24:48.715Z,100304.00
2023-04-01T14:27:43.241Z,100310.00
2023-04-01T14:30:57.393Z,100319.00
2023-04-01T14:33:47.168Z,100322.00
2023-04-01T14:36:46.727Z,100324.00
2023-04-01T14:39:45.510Z,100318.00
2023-04-01T14:42:47.423Z,100322.00
2023-04-01T14:46:15.650Z,100339.00
2023-04-01T14:49:12.342Z,100326.00
2023-04-01T14:51:46.118Z,100338.00
2023-04-01T14:54:23.981Z,100334.00
2023-04-01T14:57:13.404Z,100335.00
2023-04-01T14:59:51.649Z,100341.00
2023-04-01T15:03:20.102Z,100340.00
2023-04-01T15:05:57.183Z,100346.00
2023-04-01T15:08:34.025Z,100341.00
2023-04-01T15:11:46.829Z,100338.00
2023-04-01T15:14:57.482Z,100341.00
2023-04-01T15:17:59.519Z,100342.00
2023-04-01T15:21:36.542Z,100358.00
2023-04-01T15:24:24.947Z,100336.00
2023-04-01T15:27:17.325Z,100347.00
2023-04-01T15:30:20.372Z,100362.00
2023-04-01T15:33:09.108Z,100364.00
2023-04-01T15:35:53.694Z,100365.00
2023-04-01T15:38:37.484Z,100385.00
2023-04-01T15:41:17.990Z,100392.00
2023-04-01T15:43:51.299Z,100398.00
2023-04-01T15:46:49.182Z,100401.00
2023-04-01T15:49:44.765Z,100403.00
2023-04-01T15:52:39.647Z,100398.00
2023-04-01T15:55:41.045Z,100392.00
2023-04-01T15:58:41.049Z,100398.00
2023-04-01T16:01:31.451Z,100396.00
2023-04-01T16:04:29.992Z,100400.00
2023-04-01T16:07:32.798Z,100416.00
2023-04-01T16:10:24.064Z,100416.00
2023-04-01T16:13:23.561Z,100437.00
2023-04-01T16:16:06.291Z,100430.00
2023-04-01T16:19:21.967Z,100436.00
2023-04-01T16:22:01.825Z,100441.00
2023-04-01T16:24:43.734Z,100441.00
2023-04-01T16:27:22.739Z,100440.00
2023-04-01T16:29:58.508Z,100445.00
2023-04-01T16:32:46.440Z,100451.00
2023-04-01T16:35:43.763Z,100448.00
2023-04-01T16:38:25.510Z,100444.00
2023-04-01T16:41:26.651Z,100455.00
2023-04-01T16:44:11.625Z,100456.00
2023-04-01T16:46:46.694Z,100440.00
2023-04-01T16:49:44.617Z,100458.00
2023-04-01T16:52:34.871Z,100455.00
2023-04-01T16:55:20.530Z,100455.00
2023-04-01T16:57:54.365Z,100464.00
2023-04-01T17:00:29.629Z,100466.00
2023-04-01T17:03:18.947Z,100476.00
2023-04-01T17:06:34.618Z,100489.00
2023-04-01T17:09:33.817Z,100485.00
2023-04-01T17:12:23.086Z,100495.00
2023-04-01T17:15:04.544Z,100494.00
2023-04-01T17:17:45.712Z,100489.00
2023-04-01T17:20:42.439Z,100493.00
2023-04-01T17:23:26.823Z,100498.00
2023-04-01T17:26:28.713Z,100499.00
2023-04-01T17:29:21.207Z,100505.00
2023-04-01T17:32:03.854Z,100510.00
2023-04-01T17:34:58.001Z,100518.00
2023-04-01T17:37:51.066Z,100511.00
2023-04-01T17:40:47.579Z,100520.00
2023-04-01T17:43:49.619Z,100532.00
2023-04-01T17:46:56.799Z,100533.00
2023-04-01T17:49:39.566Z,100536.00
2023-04-01T17:52:26.445Z,100541.00
2023-04-01T17:55:07.470Z,100542.00
2023-04-01T17:57:52.770Z,100549.00
2023-04-01T18:00:46.010Z,100532.00
2023-04-01T18:03:45.094Z,100544.00
2023-04-01T18:06:22.032Z,100548.00
2023-04-01T18:09:02.720Z,100539.00
2023-04-01T18:11:53.828Z,100535.00
2023-04-01T18:15:06.550Z,100544.00
2023-04-01T18:17:54.210Z,100544.00
2023-04-01T18:20:45.714Z,100549.00
2023-04-01T18:23:29.875Z,100544.00
2023-04-01T18:26:10.237Z,100541.00
2023-04-01T18:28:46.172Z,100551.00
2023-04-01T18:31:21.397Z,100550.00
2023-04-01T18:34:02.182Z,100555.00
2023-04-01T18:36:46.437Z,100548.00
2023-04-01T18:39:41.592Z,100554.00
2023-04-01T18:42:24.869Z,100550.00
2023-04-01T18:44:59.956Z,100551.00
2023-04-01T18:47:48.160Z,100546.00
2023-04-01T18:50:28.586Z,100542.00
2023-04-01T18:53:11.243Z,100548.00
2023-04-01T18:55:45.509Z,100549.00
2023-04-01T18:58:34.939Z,100554.00
2023-04-01T19:01:26.271Z,100556.00
2023-04-01T19:04:07.597Z,100559.00
2023-04-01T19:06:48.611Z,100561.00
2023-04-01T19:09:27.829Z,100558.00
2023-04-01T19:12:35.144Z,100565.00
2023-04-01T19:15:29.766Z,100563.00
2023-04-01T19:18:51.307Z,100562.00
2023-04-01T19:21:31.195Z,100570.00
2023-04-01T19:24:48.077Z,100567.00
2023-04-01T19:27:32.745Z,100570.00
2023-04-01T19:30:30.426Z,100572.00
2023-04-01T19:33:15.819Z,100578.00
2023-04-01T19:35:56.945Z,100582.00
2023-04-01T19:38:36.106Z,100582.00
2023-04-01T19:41:36.314Z,100595.00
2023-04-01T19:44:29.084Z,100594.00
2023-04-01T19:47:14.951Z,100597.00
2023-04-01T19:50:02.498Z,100589.00
2023-04-01T19:52:38.197Z,100593.00
2023-04-01T19:55:29.557Z,100601.00
2023-04-01T19:58:11.486Z,100604.00
2023-04-01T20:00:45.475Z,100600.00
2023-04-01T20:03:36.476Z,100612.00
2023-04-01T20:06:18.697Z,100610.00
2023-04-01T20:09:09.793Z,100611.00
2023-04-01T20:11:56.175Z,100618.00
2023-04-01T20:14:38.580Z,100623.00
2023-04-01T20:17:22.588Z,100627.00
2023-04-01T20:20:01.725Z,100629.00
2023-04-01T20:23:03.511Z,100626.00
2023-04-01T20:25:41.560Z,100633.00
2023-04-01T20:28:22.663Z,100637.00
2023-04-01T20:31:35.636Z,100644.00
2023-04-01T20:34:29.013Z,100652.00
2023-04-01T20:37:16.244Z,100647.00
2023-04-01T20:40:21.425Z,100651.00
2023-04-01T20:43:26.732Z,100652.00
2023-04-01T20:46:01.782Z,100662.00
2023-04-01T20:49:19.130Z,100661.00
2023-04-01T20:51:56.867Z,100663.00
2023-04-01T20:54:48.644Z,100666.00
2023-04-01T20:57:24.187Z,100662.00
2023-04-01T21:00:18.310Z,100668.00
2023-04-01T21:03:14.403Z,100670.00
2023-04-01T21:06:49.618Z,100678.00
2023-04-01T21:09:37.995Z,100668.00
2023-04-01T21:12:28.013Z,100670.00
2023-04-01T21:15:35.262Z,100675.00
2023-04-01T21:18:23.868Z,100680.00
2023-04-01T21:21:39.767Z,100690.00
2023-04-01T21:24:56.290Z,100679.00
2023-04-01T21:28:05.506Z,100681.00
2023-04-01T21:31:07.829Z,100693.00
2023-04-01T21:34:00.689Z,100692.00
2023-04-01T21:36:52.245Z,100700.00
2023-04-01T21:39:45.742Z,100697.00
2023-04-01T21:42:30.641Z,100695.00
2023-04-01T21:45:37.652Z,100703.00
2023-04-01T21:48:49.914Z,100703.00
2023-04-01T21:52:12.386Z,100702.00
2023-04-01T21:55:49.856Z,100699.00
2023-04-01T21:59:13.263Z,100707.00
2023-04-01T22:02:20.690Z,100709.00
2023-04-01T22:05:02.298Z,100708.00
2023-04-01T22:07:41.283Z,100711.00
2023-04-01T22:10:28.228Z,100718.00
2023-04-01T22:13:10.025Z,100717.00
2023-04-01T22:16:12.908Z,100717.00
2023-04-01T22:18:48.296Z,100726.00
2023-04-01T22:21:30.398Z,100727.00
2023-04-01T22:24:07.388Z,100734.00
2023-04-01T22:26:50.782Z,100731.00
2023-04-01T22:29:33.074Z,100728.00
2023-04-01T22:32:09.485Z,100721.00
2023-04-01T22:34:49.844Z,100724.00
2023-04-01T22:37:30.558Z,100724.00
2023-04-01T22:40:23.431Z,100723.00
2023-04-01T22:43:00.845Z,100730.00
2023-04-01T22:46:02.007Z,100728.00
2023-04-01T22:48:39.603Z,100738.00
2023-04-01T22:51:18.889Z,100735.00
2023-04-01T22:54:13.629Z,100742.00
2023-04-01T22:56:49.961Z,100744.00
2023-04-01T22:59:26.238Z,100750.00
2023-04-01T23:02:03.021Z,100758.00
2023-04-01T23:04:38.124Z,100750.00
2023-04-01T23:07:24.135Z,100758.00
2023-04-01T23:09:55.596Z,100756.00
2023-04-01T23:12:26.767Z,100758.00
2023-04-01T23:14:59.348Z,100767.00
2023-04-01T23:17:59.959Z,100756.00
2023-04-01T23:21:06.463Z,100763.00
2023-04-01T23:23:50.863Z,100760.00
2023-04-01T23:26:32.272Z,100765.00
2023-04-01T23:29:01.732Z,100759.00
2023-04-01T23:31:35.879Z,100760.00
2023-04-01T23:34:23.785Z,100765.00
2023-04-01T23:36:55.933Z,100770.00
2023-04-01T23:39:30.626Z,100771.00
2023-04-01T23:42:06.083Z,100768.00
2023-04-01T23:44:37.532Z,100771.00
2023-04-01T23:47:10.157Z,100771.00
2023-04-01T23:49:48.989Z,100782.00
2023-04-01T23:52:24.697Z,100780.00
2023-04-01T23:54:58.528Z,100775.00
2023-04-01T23:57:33.164Z,100779.00
